Time,TemperatureF,DewpointF,PressureIn,WindDirection,WindDirectionDegrees,WindSpeedMPH,WindSpeedGustMPH,Humidity,HourlyPrecipIn,Conditions,Clouds,dailyrainin,SoftwareType,DateUTC
2013-09-26 00:01:00,62.4,58.0,29.91,ESE,112,0.0,-999.0,85,-99.99,,,0.00,weatherlink.com 1.10,2013-09-26 05:01:00,
2013-09-26 00:17:00,61.7,58.0,29.91,ESE,112,0.0,-999.0,86,-99.99,,,0.00,weatherlink.com 1.10,2013-09-26 05:17:00,
2013-09-26 00:32:00,61.0,58.0,29.92,ESE,112,0.0,-999.0,88,-99.99,,,0.00,weatherlink.com 1.10,2013-09-26 05:32:00,
2013-09-26 00:46:00,60.9,57.0,29.91,ESE,112,0.0,-999.0,88,-99.99,,,0.00,weatherlink.com 1.10,2013-09-26 05:46:00,
2013-09-26 01:02:00,60.9,57.0,29.92,ESE,112,0.0,-999.0,88,-99.99,,,0.00,weatherlink.com 1.10,2013-09-26 06:02:00,
2013-09-26 01:17:00,61.0,58.0,29.91,ESE,112,0.0,-999.0,88,-99.99,,,0.00,weatherlink.com 1.10,2013-09-26 06:17:00,
2013-09-26 01:32:00,61.0,58.0,29.92,ESE,112,0.0,-999.0,88,-99.99,,,0.00,weatherlink.com 1.10,2013-09-26 06:32:00,
2013-09-26 01:46:00,61.0,58.0,29.93,ESE,112,0.0,-999.0,88,-99.99,,,0.00,weatherlink.com 1.10,2013-09-26 06:46:00,
2013-09-26 02:02:00,60.9,57.0,29.93,ESE,112,0.0,-999.0,88,-99.99,,,0.00,weatherlink.com 1.10,2013-09-26 07:02:00,
2013-09-26 02:17:00,60.5,57.0,29.93,ESE,112,0.0,-999.0,89,-99.99,,,0.00,weatherlink.com 1.10,2013-09-26 07:17:00,
2013-09-26 02:32:00,60.5,58.0,29.94,ESE,112,0.0,-999.0,90,-99.99,,,0.00,weatherlink.com 1.10,2013-09-26 07:32:00,
2013-09-26 02:47:00,61.0,58.0,29.93,ESE,112,0.0,-999.0,89,-99.99,,,0.00,weatherlink.com 1.10,2013-09-26 07:47:00,
2013-09-26 03:02:00,61.3,58.0,29.94,ESE,112,0.0,-999.0,89,-99.99,,,0.00,weatherlink.com 1.10,2013-09-26 08:02:00,
2013-09-26 03:17:00,61.4,58.0,29.94,ESE,112,0.0,-999.0,88,-99.99,,,0.00,weatherlink.com 1.10,2013-09-26 08:17:00,
2013-09-26 03:33:00,61.0,58.0,29.94,ESE,112,0.0,-999.0,88,-99.99,,,0.00,weatherlink.com 1.10,2013-09-26 08:33:00,
2013-09-26 03:47:00,60.6,57.0,29.94,ESE,112,0.0,-999.0,89,-99.99,,,0.00,weatherlink.com 1.10,2013-09-26 08:47:00,
2013-09-26 04:02:00,60.2,57.0,29.94,ESE,112,0.0,-999.0,89,-99.99,,,0.00,weatherlink.com 1.10,2013-09-26 09:02:00,
2013-09-26 04:17:00,59.7,57.0,29.95,ESE,112,0.0,-999.0,90,-99.99,,,0.00,weatherlink.com 1.10,2013-09-26 09:17:00,
2013-09-26 04:33:00,59.2,56.0,29.95,ESE,112,0.0,-999.0,90,-99.99,,,0.00,weatherlink.com 1.10,2013-09-26 09:33:00,
2013-09-26 04:48:00,58.9,56.0,29.95,ESE,112,0.0,-999.0,90,-99.99,,,0.00,weatherlink.com 1.10,2013-09-26 09:48:00,
2013-09-26 05:04:00,58.7,56.0,29.95,ESE,112,0.0,-999.0,89,-99.99,,,0.00,weatherlink.com 1.10,2013-09-26 10:04:00,
2013-09-26 05:19:00,58.5,55.0,29.95,ESE,112,0.0,-999.0,89,-99.99,,,0.00,weatherlink.com 1.10,2013-09-26 10:19:00,
2013-09-26 05:49:00,58.0,55.0,29.95,ESE,112,0.0,-999.0,88,-99.99,,,0.00,weatherlink.com 1.10,2013-09-26 10:49:00,
2013-09-26 06:04:00,57.7,54.0,29.95,ESE,112,0.0,-999.0,88,-99.99,,,0.00,weatherlink.com 1.10,2013-09-26 11:04:00,
2013-09-26 06:19:00,57.4,54.0,29.95,ESE,112,0.0,-999.0,89,-99.99,,,0.00,weatherlink.com 1.10,2013-09-26 11:19:00,
2013-09-26 06:34:00,56.9,54.0,29.95,ESE,112,0.0,-999.0,89,-99.99,,,0.00,weatherlink.com 1.10,2013-09-26 11:34:00,
2013-09-26 06:49:00,56.4,54.0,29.95,ESE,112,0.0,-999.0,90,-99.99,,,0.00,weatherlink.com 1.10,2013-09-26 11:49:00,
2013-09-26 07:04:00,56.0,53.0,29.96,ESE,112,0.0,-999.0,90,-99.99,,,0.00,weatherlink.com 1.10,2013-09-26 12:04:00,
2013-09-26 07:19:00,55.9,53.0,29.96,ESE,112,0.0,-999.0,91,-99.99,,,0.00,weatherlink.com 1.10,2013-09-26 12:19:00,
2013-09-26 07:34:00,56.0,54.0,29.96,ESE,112,0.0,-999.0,91,-99.99,,,0.00,weatherlink.com 1.10,2013-09-26 12:34:00,
2013-09-26 07:49:00,56.4,54.0,29.96,ESE,112,0.0,-999.0,90,-99.99,,,0.00,weatherlink.com 1.10,2013-09-26 12:49:00,
2013-09-26 08:04:00,57.2,54.0,29.97,ESE,112,0.0,-999.0,89,-99.99,,,0.00,weatherlink.com 1.10,2013-09-26 13:04:00,
2013-09-26 08:19:00,58.3,55.0,29.96,ESE,112,1.0,-999.0,88,-99.99,,,0.00,weatherlink.com 1.10,2013-09-26 13:19:00,
2013-09-26 08:34:00,59.6,56.0,29.96,ESE,116,4.0,-999.0,86,-99.99,,,0.00,weatherlink.com 1.10,2013-09-26 13:34:00,
2013-09-26 08:49:00,60.8,56.0,29.97,ESE,115,1.0,-999.0,84,-99.99,,,0.00,weatherlink.com 1.10,2013-09-26 13:49:00,
2013-09-26 09:04:00,62.2,57.0,29.97,ESE,117,2.0,-999.0,83,-99.99,,,0.00,weatherlink.com 1.10,2013-09-26 14:04:00,
2013-09-26 09:20:00,63.6,58.0,29.97,ESE,110,0.0,-999.0,82,-99.99,,,0.00,weatherlink.com 1.10,2013-09-26 14:20:00,
2013-09-26 09:35:00,65.2,59.0,29.97,SSE,148,2.0,-999.0,80,-99.99,,,0.00,weatherlink.com 1.10,2013-09-26 14:35:00,
2013-09-26 09:50:00,65.5,59.0,29.98,South,178,4.0,-999.0,79,-99.99,,,0.00,weatherlink.com 1.10,2013-09-26 14:50:00,
2013-09-26 10:06:00,66.5,60.0,29.98,SE,136,0.0,-999.0,79,-99.99,,,0.00,weatherlink.com 1.10,2013-09-26 15:06:00,
2013-09-26 10:21:00,68.9,61.0,29.97,ESE,115,4.0,-999.0,76,-99.99,,,0.00,weatherlink.com 1.10,2013-09-26 15:21:00,
2013-09-26 10:35:00,71.0,62.0,29.97,SE,136,2.0,-999.0,74,-99.99,,,0.00,weatherlink.com 1.10,2013-09-26 15:35:00,
2013-09-26 10:50:00,72.4,63.0,29.97,SSE,163,2.0,-999.0,72,-99.99,,,0.00,weatherlink.com 1.10,2013-09-26 15:50:00,
2013-09-26 11:06:00,74.3,64.0,29.97,SSE,151,6.0,-999.0,70,-99.99,,,0.00,weatherlink.com 1.10,2013-09-26 16:06:00,
2013-09-26 11:21:00,75.9,65.0,29.97,SSE,163,5.0,-999.0,68,-99.99,,,0.00,weatherlink.com 1.10,2013-09-26 16:21:00,
2013-09-26 11:36:00,77.5,65.0,29.96,SSE,159,4.0,-999.0,65,-99.99,,,0.00,weatherlink.com 1.10,2013-09-26 16:36:00,
2013-09-26 11:51:00,79.6,66.0,29.96,SSW,195,4.0,-999.0,64,-99.99,,,0.00,weatherlink.com 1.10,2013-09-26 16:51:00,
2013-09-26 12:06:00,80.2,65.0,29.96,SE,130,6.0,-999.0,60,-99.99,,,0.00,weatherlink.com 1.10,2013-09-26 17:06:00,
2013-09-26 12:21:00,80.3,65.0,29.95,SSE,168,5.0,-999.0,60,-99.99,,,0.00,weatherlink.com 1.10,2013-09-26 17:21:00,
2013-09-26 12:37:00,81.2,65.0,29.95,ESE,123,2.0,-999.0,58,-99.99,,,0.00,weatherlink.com 1.10,2013-09-26 17:37:00,
2013-09-26 12:52:00,81.0,64.0,29.95,South,175,8.0,-999.0,57,-99.99,,,0.00,weatherlink.com 1.10,2013-09-26 17:52:00,
2013-09-26 13:07:00,81.4,65.0,29.94,SE,146,7.0,-999.0,58,-99.99,,,0.00,weatherlink.com 1.10,2013-09-26 18:07:00,
2013-09-26 13:22:00,82.0,65.0,29.94,SE,136,7.0,-999.0,56,-99.99,,,0.00,weatherlink.com 1.10,2013-09-26 18:22:00,
2013-09-26 13:37:00,82.7,65.0,29.93,SE,144,4.0,-999.0,56,-99.99,,,0.00,weatherlink.com 1.10,2013-09-26 18:37:00,
2013-09-26 13:52:00,82.9,64.0,29.93,SE,132,16.0,-999.0,54,-99.99,,,0.00,weatherlink.com 1.10,2013-09-26 18:52:00,
2013-09-26 14:07:00,83.6,65.0,29.92,SSE,166,10.0,-999.0,54,-99.99,,,0.00,weatherlink.com 1.10,2013-09-26 19:07:00,
2013-09-26 14:23:00,83.7,64.0,29.91,SSE,160,12.0,-999.0,51,-99.99,,,0.00,weatherlink.com 1.10,2013-09-26 19:23:00,
2013-09-26 14:37:00,83.9,64.0,29.91,ESE,121,7.0,-999.0,52,-99.99,,,0.00,weatherlink.com 1.10,2013-09-26 19:37:00,
2013-09-26 14:52:00,84.4,64.0,29.91,ESE,113,6.0,-999.0,51,-99.99,,,0.00,weatherlink.com 1.10,2013-09-26 19:52:00,
2013-09-26 15:07:00,84.1,64.0,29.91,ESE,113,6.0,-999.0,51,-99.99,,,0.00,weatherlink.com 1.10,2013-09-26 20:07:00,
2013-09-26 15:23:00,84.7,64.0,29.91,SE,144,6.0,-999.0,50,-99.99,,,0.00,weatherlink.com 1.10,2013-09-26 20:23:00,
2013-09-26 15:38:00,84.4,65.0,29.90,South,186,10.0,-999.0,52,-99.99,,,0.00,weatherlink.com 1.10,2013-09-26 20:38:00,
2013-09-26 15:53:00,84.5,64.0,29.90,SE,126,9.0,-999.0,51,-99.99,,,0.00,weatherlink.com 1.10,2013-09-26 20:53:00,
2013-09-26 16:09:00,84.8,65.0,29.90,South,180,3.0,-999.0,51,-99.99,,,0.00,weatherlink.com 1.10,2013-09-26 21:09:00,
2013-09-26 16:24:00,84.9,64.0,29.90,SSE,153,15.0,-999.0,49,-99.99,,,0.00,weatherlink.com 1.10,2013-09-26 21:24:00,
2013-09-26 16:38:00,84.3,63.0,29.90,SE,124,2.0,-999.0,49,-99.99,,,0.00,weatherlink.com 1.10,2013-09-26 21:38:00,
2013-09-26 16:54:00,84.2,63.0,29.90,SSE,153,7.0,-999.0,49,-99.99,,,0.00,weatherlink.com 1.10,2013-09-26 21:54:00,
2013-09-26 17:09:00,83.8,63.0,29.90,SSE,153,9.0,-999.0,50,-99.99,,,0.00,weatherlink.com 1.10,2013-09-26 22:09:00,
2013-09-26 17:24:00,83.4,63.0,29.90,ESE,116,6.0,-999.0,50,-99.99,,,0.00,weatherlink.com 1.10,2013-09-26 22:24:00,
2013-09-26 17:39:00,83.1,63.0,29.91,SE,125,4.0,-999.0,51,-99.99,,,0.00,weatherlink.com 1.10,2013-09-26 22:39:00,
2013-09-26 17:54:00,82.4,63.0,29.91,SE,142,4.0,-999.0,52,-99.99,,,0.00,weatherlink.com 1.10,2013-09-26 22:54:00,
2013-09-26 18:09:00,81.8,63.0,29.91,SE,142,6.0,-999.0,54,-99.99,,,0.00,weatherlink.com 1.10,2013-09-26 23:09:00,
2013-09-26 18:24:00,81.0,63.0,29.90,SE,128,1.0,-999.0,55,-99.99,,,0.00,weatherlink.com 1.10,2013-09-26 23:24:00,
2013-09-26 18:39:00,79.9,63.0,29.91,SE,142,2.0,-999.0,57,-99.99,,,0.00,weatherlink.com 1.10,2013-09-26 23:39:00,
2013-09-26 18:54:00,78.7,63.0,29.91,SE,125,0.0,-999.0,58,-99.99,,,0.00,weatherlink.com 1.10,2013-09-26 23:54:00,
2013-09-26 19:24:00,77.0,63.0,29.91,ESE,117,1.0,-999.0,62,-99.99,,,0.00,weatherlink.com 1.10,2013-09-27 00:24:00,
2013-09-26 19:39:00,76.3,63.0,29.91,ESE,117,0.0,-999.0,63,-99.99,,,0.00,weatherlink.com 1.10,2013-09-27 00:39:00,
2013-09-26 19:54:00,75.8,63.0,29.91,ESE,121,0.0,-999.0,65,-99.99,,,0.00,weatherlink.com 1.10,2013-09-27 00:54:00,
2013-09-26 20:09:00,75.9,63.0,29.91,ESE,122,5.0,-999.0,65,-99.99,,,0.00,weatherlink.com 1.10,2013-09-27 01:09:00,
2013-09-26 20:25:00,75.7,63.0,29.92,ESE,117,5.0,-999.0,65,-99.99,,,0.00,weatherlink.com 1.10,2013-09-27 01:25:00,
2013-09-26 20:39:00,75.5,63.0,29.92,ESE,120,0.0,-999.0,66,-99.99,,,0.00,weatherlink.com 1.10,2013-09-27 01:39:00,
2013-09-26 20:54:00,75.1,63.0,29.93,ESE,109,2.0,-999.0,66,-99.99,,,0.00,weatherlink.com 1.10,2013-09-27 01:54:00,
2013-09-26 21:10:00,74.5,63.0,29.93,ESE,107,1.0,-999.0,67,-99.99,,,0.00,weatherlink.com 1.10,2013-09-27 02:10:00,
2013-09-26 21:25:00,73.8,63.0,29.93,ESE,117,1.0,-999.0,68,-99.99,,,0.00,weatherlink.com 1.10,2013-09-27 02:25:00,
2013-09-26 21:40:00,73.0,63.0,29.94,ESE,108,0.0,-999.0,70,-99.99,,,0.00,weatherlink.com 1.10,2013-09-27 02:40:00,
2013-09-26 21:55:00,72.5,63.0,29.94,ESE,123,4.0,-999.0,71,-99.99,,,0.00,weatherlink.com 1.10,2013-09-27 02:55:00,
2013-09-26 22:10:00,72.2,63.0,29.95,ESE,112,2.0,-999.0,72,-99.99,,,0.00,weatherlink.com 1.10,2013-09-27 03:10:00,
2013-09-26 22:25:00,71.9,63.0,29.95,ESE,121,2.0,-999.0,73,-99.99,,,0.00,weatherlink.com 1.10,2013-09-27 03:25:00,
2013-09-26 22:40:00,71.7,63.0,29.95,ESE,120,0.0,-999.0,73,-99.99,,,0.00,weatherlink.com 1.10,2013-09-27 03:40:00,
2013-09-26 22:55:00,71.3,63.0,29.95,ESE,123,1.0,-999.0,74,-99.99,,,0.00,weatherlink.com 1.10,2013-09-27 03:55:00,
2013-09-26 23:10:00,71.3,63.0,29.95,ESE,111,4.0,-999.0,74,-99.99,,,0.00,weatherlink.com 1.10,2013-09-27 04:10:00,
2013-09-26 23:26:00,71.0,63.0,29.96,SE,143,5.0,-999.0,75,-99.99,,,0.00,weatherlink.com 1.10,2013-09-27 04:26:00,
2013-09-26 23:40:00,70.7,62.0,29.96,ESE,119,1.0,-999.0,75,-99.99,,,0.00,weatherlink.com 1.10,2013-09-27 04:40:00,
2013-09-26 23:55:00,70.1,63.0,29.97,ESE,115,4.0,-999.0,77,-99.99,,,0.00,weatherlink.com 1.10,2013-09-27 04:55:00,